sensor_id;sensor_type;location;lat;lon;timestamp;pressure;altitude;pressure_sealevel;temperature;humidity
63097;BME280;49185;42.320;23.198;2024-01-27T00:00:37;95446.97;;;-2.52;100.00
63097;BME280;49185;42.320;23.198;2024-01-27T00:03:02;95459.53;;;-2.47;100.00
63097;BME280;49185;42.320;23.198;2024-01-27T00:05:28;95462.22;;;-2.39;100.00
63097;BME280;49185;42.320;23.198;2024-01-27T00:07:53;95461.19;;;-2.46;100.00
63097;BME280;49185;42.320;23.198;2024-01-27T00:10:18;95458.28;;;-2.61;100.00
63097;BME280;49185;42.320;23.198;2024-01-27T00:12:44;95448.84;;;-2.62;100.00
63097;BME280;49185;42.320;23.198;2024-01-27T00:15:09;95438.56;;;-2.45;100.00
63097;BME280;49185;42.320;23.198;2024-01-27T00:17:35;95429.69;;;-2.35;100.00
63097;BME280;49185;42.320;23.198;2024-01-27T00:20:00;95439.34;;;-2.27;100.00
63097;BME280;49185;42.320;23.198;2024-01-27T00:22:25;95442.97;;;-2.46;100.00
63097;BME280;49185;42.320;23.198;2024-01-27T00:24:51;95451.66;;;-2.55;100.00
63097;BME280;49185;42.320;23.198;2024-01-27T00:27:16;95446.75;;;-2.58;100.00
63097;BME280;49185;42.320;23.198;2024-01-27T00:29:41;95443.69;;;-2.54;100.00
63097;BME280;49185;42.320;23.198;2024-01-27T00:32:07;95437.00;;;-2.74;100.00
63097;BME280;49185;42.320;23.198;2024-01-27T00:34:32;95424.56;;;-2.62;100.00
63097;BME280;49185;42.320;23.198;2024-01-27T00:36:58;95428.69;;;-2.60;100.00
63097;BME280;49185;42.320;23.198;2024-01-27T00:39:23;95432.38;;;-2.62;100.00
63097;BME280;49185;42.320;23.198;2024-01-27T00:41:48;95440.84;;;-2.78;100.00
63097;BME280;49185;42.320;23.198;2024-01-27T00:44:14;95440.72;;;-2.77;100.00
63097;BME280;49185;42.320;23.198;2024-01-27T00:46:39;95433.19;;;-2.80;100.00
63097;BME280;49185;42.320;23.198;2024-01-27T00:49:05;95442.00;;;-2.63;100.00
63097;BME280;49185;42.320;23.198;2024-01-27T00:51:30;95448.38;;;-2.57;100.00
63097;BME280;49185;42.320;23.198;2024-01-27T00:53:56;95442.50;;;-2.59;100.00
63097;BME280;49185;42.320;23.198;2024-01-27T00:56:21;95447.47;;;-2.66;100.00
63097;BME280;49185;42.320;23.198;2024-01-27T00:58:47;95441.38;;;-2.75;100.00
63097;BME280;49185;42.320;23.198;2024-01-27T01:01:12;95446.59;;;-2.75;100.00
63097;BME280;49185;42.320;23.198;2024-01-27T01:03:38;95443.41;;;-2.69;100.00
63097;BME280;49185;42.320;23.198;2024-01-27T01:06:03;95438.25;;;-2.60;100.00
63097;BME280;49185;42.320;23.198;2024-01-27T01:08:28;95443.16;;;-2.57;100.00
63097;BME280;49185;42.320;23.198;2024-01-27T01:10:54;95437.28;;;-2.59;100.00
63097;BME280;49185;42.320;23.198;2024-01-27T01:13:20;95428.13;;;-2.45;100.00
63097;BME280;49185;42.320;23.198;2024-01-27T01:15:45;95422.69;;;-2.52;100.00
63097;BME280;49185;42.320;23.198;2024-01-27T01:18:11;95416.59;;;-2.61;100.00
63097;BME280;49185;42.320;23.198;2024-01-27T01:20:36;95420.91;;;-2.52;100.00
63097;BME280;49185;42.320;23.198;2024-01-27T01:23:01;95431.13;;;-2.58;100.00
63097;BME280;49185;42.320;23.198;2024-01-27T01:25:27;95427.78;;;-2.69;100.00
63097;BME280;49185;42.320;23.198;2024-01-27T01:27:52;95412.53;;;-2.81;100.00
63097;BME280;49185;42.320;23.198;2024-01-27T01:30:18;95408.13;;;-2.81;100.00
63097;BME280;49185;42.320;23.198;2024-01-27T01:32:43;95407.31;;;-2.63;100.00
63097;BME280;49185;42.320;23.198;2024-01-27T01:35:10;95412.66;;;-2.47;100.00
63097;BME280;49185;42.320;23.198;2024-01-27T01:37:35;95414.44;;;-2.47;100.00
63097;BME280;49185;42.320;23.198;2024-01-27T01:40:01;95406.13;;;-2.51;100.00
63097;BME280;49185;42.320;23.198;2024-01-27T01:42:26;95409.69;;;-2.52;100.00
63097;BME280;49185;42.320;23.198;2024-01-27T01:44:52;95412.66;;;-2.47;100.00
63097;BME280;49185;42.320;23.198;2024-01-27T01:47:18;95419.13;;;-2.33;100.00
63097;BME280;49185;42.320;23.198;2024-01-27T01:49:43;95424.38;;;-2.25;100.00
63097;BME280;49185;42.320;23.198;2024-01-27T01:52:09;95413.78;;;-2.23;100.00
63097;BME280;49185;42.320;23.198;2024-01-27T01:54:35;95408.50;;;-2.14;100.00
63097;BME280;49185;42.320;23.198;2024-01-27T01:57:02;95417.72;;;-2.01;100.00
63097;BME280;49185;42.320;23.198;2024-01-27T01:59:28;95420.34;;;-1.93;100.00
63097;BME280;49185;42.320;23.198;2024-01-27T02:01:54;95420.56;;;-1.86;100.00
63097;BME280;49185;42.320;23.198;2024-01-27T02:04:19;95422.06;;;-1.76;100.00
63097;BME280;49185;42.320;23.198;2024-01-27T02:06:44;95416.06;;;-1.76;100.00
63097;BME280;49185;42.320;23.198;2024-01-27T02:09:10;95420.53;;;-1.95;100.00
63097;BME280;49185;42.320;23.198;2024-01-27T02:11:35;95400.78;;;-1.97;100.00
63097;BME280;49185;42.320;23.198;2024-01-27T02:14:01;95403.66;;;-1.82;100.00
63097;BME280;49185;42.320;23.198;2024-01-27T02:16:26;95408.78;;;-1.64;100.00
63097;BME280;49185;42.320;23.198;2024-01-27T02:18:51;95410.78;;;-1.84;100.00
63097;BME280;49185;42.320;23.198;2024-01-27T02:21:17;95391.88;;;-1.86;100.00
63097;BME280;49185;42.320;23.198;2024-01-27T02:23:42;95396.63;;;-1.82;100.00
63097;BME280;49185;42.320;23.198;2024-01-27T02:26:08;95393.75;;;-1.70;100.00
63097;BME280;49185;42.320;23.198;2024-01-27T02:28:33;95389.03;;;-1.67;100.00
63097;BME280;49185;42.320;23.198;2024-01-27T02:30:59;95381.84;;;-1.65;100.00
63097;BME280;49185;42.320;23.198;2024-01-27T02:33:24;95378.84;;;-1.44;100.00
63097;BME280;49185;42.320;23.198;2024-01-27T02:35:50;95371.94;;;-1.19;100.00
63097;BME280;49185;42.320;23.198;2024-01-27T02:38:15;95372.44;;;-1.15;100.00
63097;BME280;49185;42.320;23.198;2024-01-27T02:40:41;95372.84;;;-1.28;100.00
63097;BME280;49185;42.320;23.198;2024-01-27T02:43:06;95382.28;;;-1.43;100.00
63097;BME280;49185;42.320;23.198;2024-01-27T02:45:31;95370.50;;;-1.56;100.00
63097;BME280;49185;42.320;23.198;2024-01-27T02:47:57;95372.44;;;-1.58;100.00
63097;BME280;49185;42.320;23.198;2024-01-27T02:50:22;95364.28;;;-1.55;100.00
63097;BME280;49185;42.320;23.198;2024-01-27T02:52:48;95367.59;;;-1.44;100.00
63097;BME280;49185;42.320;23.198;2024-01-27T02:55:13;95371.00;;;-1.52;100.00
63097;BME280;49185;42.320;23.198;2024-01-27T02:57:40;95363.50;;;-1.55;100.00
63097;BME280;49185;42.320;23.198;2024-01-27T03:00:06;95353.16;;;-1.65;100.00
63097;BME280;49185;42.320;23.198;2024-01-27T03:02:31;95357.47;;;-1.90;100.00
63097;BME280;49185;42.320;23.198;2024-01-27T03:04:57;95370.97;;;-1.95;100.00
63097;BME280;49185;42.320;23.198;2024-01-27T03:07:22;95383.59;;;-2.08;100.00
63097;BME280;49185;42.320;23.198;2024-01-27T03:09:48;95369.09;;;-2.11;100.00
63097;BME280;49185;42.320;23.198;2024-01-27T03:12:14;95370.22;;;-2.13;100.00
63097;BME280;49185;42.320;23.198;2024-01-27T03:14:39;95354.94;;;-2.08;100.00
63097;BME280;49185;42.320;23.198;2024-01-27T03:17:05;95377.59;;;-2.08;100.00
63097;BME280;49185;42.320;23.198;2024-01-27T03:19:30;95357.47;;;-2.16;100.00
63097;BME280;49185;42.320;23.198;2024-01-27T03:21:56;95360.19;;;-2.00;100.00
63097;BME280;49185;42.320;23.198;2024-01-27T03:24:21;95361.78;;;-2.07;100.00
63097;BME280;49185;42.320;23.198;2024-01-27T03:26:46;95368.81;;;-1.99;100.00
63097;BME280;49185;42.320;23.198;2024-01-27T03:29:12;95371.59;;;-2.01;100.00
63097;BME280;49185;42.320;23.198;2024-01-27T03:31:37;95359.53;;;-2.02;100.00
63097;BME280;49185;42.320;23.198;2024-01-27T03:34:03;95374.69;;;-1.97;100.00
63097;BME280;49185;42.320;23.198;2024-01-27T03:36:28;95371.22;;;-1.80;100.00
63097;BME280;49185;42.320;23.198;2024-01-27T03:38:55;95381.88;;;-1.99;100.00
63097;BME280;49185;42.320;23.198;2024-01-27T03:41:21;95372.41;;;-2.00;100.00
63097;BME280;49185;42.320;23.198;2024-01-27T03:43:46;95365.91;;;-1.96;100.00
63097;BME280;49185;42.320;23.198;2024-01-27T03:46:11;95378.81;;;-1.86;100.00
63097;BME280;49185;42.320;23.198;2024-01-27T03:48:37;95385.22;;;-1.81;100.00
63097;BME280;49185;42.320;23.198;2024-01-27T03:51:03;95373.63;;;-1.86;100.00
63097;BME280;49185;42.320;23.198;2024-01-27T03:53:28;95379.47;;;-1.93;100.00
63097;BME280;49185;42.320;23.198;2024-01-27T03:55:54;95379.75;;;-1.96;100.00
63097;BME280;49185;42.320;23.198;2024-01-27T03:58:19;95381.28;;;-1.85;100.00
63097;BME280;49185;42.320;23.198;2024-01-27T04:00:45;95387.56;;;-1.69;100.00
63097;BME280;49185;42.320;23.198;2024-01-27T04:03:11;95379.69;;;-1.78;100.00
63097;BME280;49185;42.320;23.198;2024-01-27T04:05:36;95383.16;;;-1.69;100.00
63097;BME280;49185;42.320;23.198;2024-01-27T04:08:02;95385.41;;;-1.74;100.00
63097;BME280;49185;42.320;23.198;2024-01-27T04:10:27;95383.78;;;-1.75;100.00
63097;BME280;49185;42.320;23.198;2024-01-27T04:12:53;95375.97;;;-1.67;100.00
63097;BME280;49185;42.320;23.198;2024-01-27T04:15:18;95383.78;;;-1.75;100.00
63097;BME280;49185;42.320;23.198;2024-01-27T04:17:43;95380.59;;;-1.53;100.00
63097;BME280;49185;42.320;23.198;2024-01-27T04:20:09;95388.13;;;-1.49;100.00
63097;BME280;49185;42.320;23.198;2024-01-27T04:22:35;95393.34;;;-1.49;100.00
63097;BME280;49185;42.320;23.198;2024-01-27T04:25:01;95387.06;;;-1.65;100.00
63097;BME280;49185;42.320;23.198;2024-01-27T04:27:29;95393.28;;;-1.66;100.00
63097;BME280;49185;42.320;23.198;2024-01-27T04:29:55;95392.47;;;-1.66;100.00
63097;BME280;49185;42.320;23.198;2024-01-27T04:32:21;95398.88;;;-1.53;100.00
63097;BME280;49185;42.320;23.198;2024-01-27T04:34:46;95387.94;;;-1.56;100.00
63097;BME280;49185;42.320;23.198;2024-01-27T04:37:11;95391.34;;;-1.64;100.00
63097;BME280;49185;42.320;23.198;2024-01-27T04:39:37;95395.16;;;-1.50;100.00
63097;BME280;49185;42.320;23.198;2024-01-27T04:42:03;95382.56;;;-1.55;100.00
63097;BME280;49185;42.320;23.198;2024-01-27T04:44:28;95393.19;;;-1.48;100.00
63097;BME280;49185;42.320;23.198;2024-01-27T04:46:53;95394.84;;;-1.39;100.00
63097;BME280;49185;42.320;23.198;2024-01-27T04:49:19;95398.81;;;-1.35;100.00
63097;BME280;49185;42.320;23.198;2024-01-27T04:51:44;95390.97;;;-1.35;100.00
63097;BME280;49185;42.320;23.198;2024-01-27T04:54:10;95392.13;;;-1.29;100.00
63097;BME280;49185;42.320;23.198;2024-01-27T04:56:35;95388.53;;;-1.28;100.00
63097;BME280;49185;42.320;23.198;2024-01-27T04:59:00;95399.97;;;-1.21;100.00
63097;BME280;49185;42.320;23.198;2024-01-27T05:01:26;95401.59;;;-1.20;100.00
63097;BME280;49185;42.320;23.198;2024-01-27T05:03:51;95396.88;;;-1.16;100.00
63097;BME280;49185;42.320;23.198;2024-01-27T05:06:16;95396.72;;;-1.15;100.00
63097;BME280;49185;42.320;23.198;2024-01-27T05:08:42;95397.38;;;-1.12;100.00
63097;BME280;49185;42.320;23.198;2024-01-27T05:11:07;95409.78;;;-1.06;100.00
63097;BME280;49185;42.320;23.198;2024-01-27T05:13:33;95404.56;;;-1.06;100.00
63097;BME280;49185;42.320;23.198;2024-01-27T05:15:58;95406.56;;;-1.00;100.00
63097;BME280;49185;42.320;23.198;2024-01-27T05:18:23;95410.13;;;-1.01;100.00
63097;BME280;49185;42.320;23.198;2024-01-27T05:20:49;95406.59;;;-0.92;100.00
63097;BME280;49185;42.320;23.198;2024-01-27T05:23:14;95410.47;;;-0.96;100.00
63097;BME280;49185;42.320;23.198;2024-01-27T05:25:39;95416.69;;;-0.97;100.00
63097;BME280;49185;42.320;23.198;2024-01-27T05:28:05;95411.31;;;-0.87;100.00
63097;BME280;49185;42.320;23.198;2024-01-27T05:30:31;95397.75;;;-0.91;100.00
63097;BME280;49185;42.320;23.198;2024-01-27T05:32:56;95405.44;;;-0.89;100.00
63097;BME280;49185;42.320;23.198;2024-01-27T05:35:21;95411.19;;;-0.78;100.00
63097;BME280;49185;42.320;23.198;2024-01-27T05:37:47;95404.47;;;-0.88;100.00
63097;BME280;49185;42.320;23.198;2024-01-27T05:40:12;95417.69;;;-0.90;100.00
63097;BME280;49185;42.320;23.198;2024-01-27T05:42:38;95411.63;;;-0.90;100.00
63097;BME280;49185;42.320;23.198;2024-01-27T05:45:03;95412.31;;;-0.88;100.00
63097;BME280;49185;42.320;23.198;2024-01-27T05:47:29;95418.50;;;-0.89;100.00
63097;BME280;49185;42.320;23.198;2024-01-27T05:49:54;95414.09;;;-0.81;100.00
63097;BME280;49185;42.320;23.198;2024-01-27T05:52:20;95411.81;;;-0.84;100.00
63097;BME280;49185;42.320;23.198;2024-01-27T05:54:45;95419.97;;;-0.79;100.00
63097;BME280;49185;42.320;23.198;2024-01-27T05:57:10;95427.97;;;-0.80;100.00
63097;BME280;49185;42.320;23.198;2024-01-27T05:59:36;95426.19;;;-0.71;100.00
63097;BME280;49185;42.320;23.198;2024-01-27T06:02:01;95419.97;;;-0.79;100.00
63097;BME280;49185;42.320;23.198;2024-01-27T06:04:27;95433.38;;;-0.73;100.00
63097;BME280;49185;42.320;23.198;2024-01-27T06:06:52;95436.50;;;-0.62;100.00
63097;BME280;49185;42.320;23.198;2024-01-27T06:09:17;95429.66;;;-0.54;100.00
63097;BME280;49185;42.320;23.198;2024-01-27T06:11:43;95430.44;;;-0.62;100.00
63097;BME280;49185;42.320;23.198;2024-01-27T06:14:08;95435.16;;;-0.66;100.00
63097;BME280;49185;42.320;23.198;2024-01-27T06:16:33;95438.13;;;-0.69;100.00
63097;BME280;49185;42.320;23.198;2024-01-27T06:18:59;95444.81;;;-0.66;100.00
63097;BME280;49185;42.320;23.198;2024-01-27T06:21:24;95444.19;;;-0.60;100.00
63097;BME280;49185;42.320;23.198;2024-01-27T06:23:50;95455.13;;;-0.65;100.00
63097;BME280;49185;42.320;23.198;2024-01-27T06:26:15;95440.25;;;-0.72;100.00
63097;BME280;49185;42.320;23.198;2024-01-27T06:28:41;95455.91;;;-0.81;100.00
63097;BME280;49185;42.320;23.198;2024-01-27T06:31:06;95458.81;;;-0.84;100.00
63097;BME280;49185;42.320;23.198;2024-01-27T06:33:32;95465.47;;;-0.98;100.00
63097;BME280;49185;42.320;23.198;2024-01-27T06:35:57;95473.13;;;-1.04;100.00
63097;BME280;49185;42.320;23.198;2024-01-27T06:38:23;95484.84;;;-1.17;100.00
63097;BME280;49185;42.320;23.198;2024-01-27T06:40:48;95478.31;;;-1.12;100.00
63097;BME280;49185;42.320;23.198;2024-01-27T06:43:13;95486.09;;;-1.21;100.00
63097;BME280;49185;42.320;23.198;2024-01-27T06:45:40;95490.41;;;-1.11;100.00
63097;BME280;49185;42.320;23.198;2024-01-27T06:48:06;95495.16;;;-1.07;100.00
63097;BME280;49185;42.320;23.198;2024-01-27T06:50:32;95489.91;;;-1.07;100.00
63097;BME280;49185;42.320;23.198;2024-01-27T06:52:58;95506.25;;;-1.05;100.00
63097;BME280;49185;42.320;23.198;2024-01-27T06:55:23;95514.22;;;-1.06;100.00
63097;BME280;49185;42.320;23.198;2024-01-27T06:57:49;95497.56;;;-1.13;100.00
63097;BME280;49185;42.320;23.198;2024-01-27T07:00:14;95514.91;;;-1.04;100.00
63097;BME280;49185;42.320;23.198;2024-01-27T07:02:40;95504.78;;;-1.07;100.00
63097;BME280;49185;42.320;23.198;2024-01-27T07:05:06;95511.00;;;-1.00;100.00
63097;BME280;49185;42.320;23.198;2024-01-27T07:07:31;95521.41;;;-1.08;100.00
63097;BME280;49185;42.320;23.198;2024-01-27T07:09:57;95505.22;;;-1.20;100.00
63097;BME280;49185;42.320;23.198;2024-01-27T07:12:23;95504.78;;;-1.07;100.00
63097;BME280;49185;42.320;23.198;2024-01-27T07:14:48;95501.47;;;-1.18;100.00
63097;BME280;49185;42.320;23.198;2024-01-27T07:17:14;95514.53;;;-1.18;100.00
63097;BME280;49185;42.320;23.198;2024-01-27T07:19:39;95513.66;;;-1.26;100.00
63097;BME280;49185;42.320;23.198;2024-01-27T07:22:05;95511.34;;;-1.29;100.00
63097;BME280;49185;42.320;23.198;2024-01-27T07:24:30;95511.25;;;-1.20;100.00
63097;BME280;49185;42.320;23.198;2024-01-27T07:26:56;95510.91;;;-1.25;100.00
63097;BME280;49185;42.320;23.198;2024-01-27T07:29:21;95516.31;;;-1.18;100.00
63097;BME280;49185;42.320;23.198;2024-01-27T07:31:47;95504.03;;;-1.26;100.00
63097;BME280;49185;42.320;23.198;2024-01-27T07:34:13;95489.28;;;-1.09;100.00
63097;BME280;49185;42.320;23.198;2024-01-27T07:36:38;95496.78;;;-1.06;100.00
63097;BME280;49185;42.320;23.198;2024-01-27T07:39:04;95505.97;;;-0.93;100.00
63097;BME280;49185;42.320;23.198;2024-01-27T07:41:29;95505.22;;;-0.78;100.00
63097;BME280;49185;42.320;23.198;2024-01-27T07:43:55;95517.13;;;-0.83;100.00
63097;BME280;49185;42.320;23.198;2024-01-27T07:46:20;95525.13;;;-0.85;100.00
63097;BME280;49185;42.320;23.198;2024-01-27T07:48:45;95528.38;;;-0.83;100.00
63097;BME280;49185;42.320;23.198;2024-01-27T07:51:11;95521.31;;;-0.90;100.00
63097;BME280;49185;42.320;23.198;2024-01-27T07:53:36;95530.34;;;-0.77;100.00
63097;BME280;49185;42.320;23.198;2024-01-27T07:56:01;95534.91;;;-0.79;100.00
63097;BME280;49185;42.320;23.198;2024-01-27T07:58:27;95551.25;;;-0.77;100.00
63097;BME280;49185;42.320;23.198;2024-01-27T08:00:52;95562.50;;;-0.84;100.00
63097;BME280;49185;42.320;23.198;2024-01-27T08:03:18;95573.28;;;-0.79;100.00
63097;BME280;49185;42.320;23.198;2024-01-27T08:05:43;95567.91;;;-0.78;100.00
63097;BME280;49185;42.320;23.198;2024-01-27T08:08:08;95570.03;;;-0.73;100.00
63097;BME280;49185;42.320;23.198;2024-01-27T08:10:34;95578.22;;;-0.68;100.00
63097;BME280;49185;42.320;23.198;2024-01-27T08:12:59;95578.22;;;-0.76;100.00
63097;BME280;49185;42.320;23.198;2024-01-27T08:15:25;95590.09;;;-0.82;100.00
63097;BME280;49185;42.320;23.198;2024-01-27T08:17:50;95608.94;;;-0.70;100.00
63097;BME280;49185;42.320;23.198;2024-01-27T08:20:15;95605.69;;;-0.64;100.00
63097;BME280;49185;42.320;23.198;2024-01-27T08:22:41;95609.72;;;-0.69;100.00
63097;BME280;49185;42.320;23.198;2024-01-27T08:25:06;95609.47;;;-0.50;100.00
63097;BME280;49185;42.320;23.198;2024-01-27T08:27:32;95619.94;;;-0.50;100.00
63097;BME280;49185;42.320;23.198;2024-01-27T08:29:57;95610.31;;;-0.49;100.00
63097;BME280;49185;42.320;23.198;2024-01-27T08:32:23;95600.72;;;-0.41;100.00
63097;BME280;49185;42.320;23.198;2024-01-27T08:34:48;95614.91;;;-0.43;100.00
63097;BME280;49185;42.320;23.198;2024-01-27T08:37:17;95629.69;;;-0.26;100.00
63097;BME280;49185;42.320;23.198;2024-01-27T08:39:42;95619.41;;;-0.11;100.00
63097;BME280;49185;42.320;23.198;2024-01-27T08:42:08;95625.31;;;-0.01;100.00
63097;BME280;49185;42.320;23.198;2024-01-27T08:44:33;95627.50;;;0.37;100.00
63097;BME280;49185;42.320;23.198;2024-01-27T08:46:58;95620.16;;;0.57;100.00
63097;BME280;49185;42.320;23.198;2024-01-27T08:49:24;95602.31;;;0.61;100.00
63097;BME280;49185;42.320;23.198;2024-01-27T08:51:49;95608.84;;;0.40;100.00
63097;BME280;49185;42.320;23.198;2024-01-27T08:54:15;95611.28;;;0.17;100.00
63097;BME280;49185;42.320;23.198;2024-01-27T08:56:40;95616.38;;;0.18;100.00
63097;BME280;49185;42.320;23.198;2024-01-27T08:59:05;95634.50;;;0.12;100.00
63097;BME280;49185;42.320;23.198;2024-01-27T09:01:31;95630.38;;;-0.07;100.00
63097;BME280;49185;42.320;23.198;2024-01-27T09:03:56;95621.22;;;-0.11;100.00
63097;BME280;49185;42.320;23.198;2024-01-27T09:06:21;95618.75;;;-0.13;100.00
63097;BME280;49185;42.320;23.198;2024-01-27T09:08:47;95595.06;;;-0.11;100.00
63097;BME280;49185;42.320;23.198;2024-01-27T09:11:12;95578.56;;;0.21;100.00
63097;BME280;49185;42.320;23.198;2024-01-27T09:13:38;95622.75;;;0.41;100.00
63097;BME280;49185;42.320;23.198;2024-01-27T09:16:03;95626.84;;;0.27;100.00
63097;BME280;49185;42.320;23.198;2024-01-27T09:18:29;95582.97;;;0.62;100.00
63097;BME280;49185;42.320;23.198;2024-01-27T09:20:54;95586.28;;;1.28;100.00
63097;BME280;49185;42.320;23.198;2024-01-27T09:23:19;95592.75;;;1.48;100.00
63097;BME280;49185;42.320;23.198;2024-01-27T09:25:45;95611.16;;;1.40;100.00
63097;BME280;49185;42.320;23.198;2024-01-27T09:28:10;95606.78;;;1.16;100.00
63097;BME280;49185;42.320;23.198;2024-01-27T09:30:36;95609.94;;;1.03;100.00
63097;BME280;49185;42.320;23.198;2024-01-27T09:33:01;95601.25;;;1.11;100.00
63097;BME280;49185;42.320;23.198;2024-01-27T09:35:26;95599.56;;;1.18;100.00
63097;BME280;49185;42.320;23.198;2024-01-27T09:37:52;95605.13;;;1.23;100.00
63097;BME280;49185;42.320;23.198;2024-01-27T09:40:17;95596.16;;;1.18;100.00
63097;BME280;49185;42.320;23.198;2024-01-27T09:42:53;95587.81;;;1.14;100.00
63097;BME280;49185;42.320;23.198;2024-01-27T09:45:23;95579.47;;;1.10;100.00
63097;BME280;49185;42.320;23.198;2024-01-27T09:47:49;95575.19;;;1.09;100.00
63097;BME280;49185;42.320;23.198;2024-01-27T09:50:17;95592.16;;;1.38;100.00
63097;BME280;49185;42.320;23.198;2024-01-27T09:52:43;95584.66;;;1.27;100.00
63097;BME280;49185;42.320;23.198;2024-01-27T09:55:09;95579.94;;;1.22;100.00
63097;BME280;49185;42.320;23.198;2024-01-27T09:57:38;95588.16;;;1.50;100.00
63097;BME280;49185;42.320;23.198;2024-01-27T10:00:06;95585.34;;;1.60;100.00
63097;BME280;49185;42.320;23.198;2024-01-27T10:02:36;95596.44;;;1.70;100.00
63097;BME280;49185;42.320;23.198;2024-01-27T10:05:01;95596.78;;;1.67;100.00
63097;BME280;49185;42.320;23.198;2024-01-27T10:07:27;95602.25;;;1.58;100.00
63097;BME280;49185;42.320;23.198;2024-01-27T10:09:53;95592.41;;;1.51;100.00
63097;BME280;49185;42.320;23.198;2024-01-27T10:12:20;95597.09;;;1.64;100.00
63097;BME280;49185;42.320;23.198;2024-01-27T10:14:46;95592.81;;;1.71;100.00
63097;BME280;49185;42.320;23.198;2024-01-27T10:17:11;95583.41;;;1.85;100.00
63097;BME280;49185;42.320;23.198;2024-01-27T10:19:37;95586.81;;;1.86;100.00
63097;BME280;49185;42.320;23.198;2024-01-27T10:22:02;95590.53;;;2.00;100.00
63097;BME280;49185;42.320;23.198;2024-01-27T10:24:28;95594.22;;;2.14;100.00
63097;BME280;49185;42.320;23.198;2024-01-27T10:27:01;95586.97;;;2.39;100.00
63097;BME280;49185;42.320;23.198;2024-01-27T10:29:27;95588.44;;;2.18;100.00
63097;BME280;49185;42.320;23.198;2024-01-27T10:31:52;95601.88;;;2.23;100.00
63097;BME280;49185;42.320;23.198;2024-01-27T10:34:21;95611.72;;;2.21;100.00
63097;BME280;49185;42.320;23.198;2024-01-27T10:36:46;95621.75;;;2.18;100.00
63097;BME280;49185;42.320;23.198;2024-01-27T10:39:22;95618.66;;;2.14;100.00
63097;BME280;49185;42.320;23.198;2024-01-27T10:41:49;95609.53;;;2.02;100.00
63097;BME280;49185;42.320;23.198;2024-01-27T10:44:17;95607.44;;;1.97;100.00
63097;BME280;49185;42.320;23.198;2024-01-27T10:46:45;95601.38;;;1.97;100.00
63097;BME280;49185;42.320;23.198;2024-01-27T10:49:12;95608.91;;;2.00;100.00
63097;BME280;49185;42.320;23.198;2024-01-27T10:52:14;95601.50;;;2.03;100.00
63097;BME280;49185;42.320;23.198;2024-01-27T10:54:33;95592.69;;;1.96;100.00
63097;BME280;49185;42.320;23.198;2024-01-27T10:57:00;95598.47;;;2.15;100.00
63097;BME280;49185;42.320;23.198;2024-01-27T10:59:26;95593.56;;;2.12;100.00
63097;BME280;49185;42.320;23.198;2024-01-27T11:01:52;95603.19;;;2.42;100.00
63097;BME280;49185;42.320;23.198;2024-01-27T11:04:22;95625.50;;;2.46;100.00
63097;BME280;49185;42.320;23.198;2024-01-27T11:06:48;95624.25;;;2.80;100.00
63097;BME280;49185;42.320;23.198;2024-01-27T11:09:14;95619.69;;;2.74;100.00
63097;BME280;49185;42.320;23.198;2024-01-27T11:11:45;95617.50;;;2.63;100.00
63097;BME280;49185;42.320;23.198;2024-01-27T11:14:11;95633.59;;;2.60;100.00
63097;BME280;49185;42.320;23.198;2024-01-27T11:16:37;95638.06;;;2.74;100.00
63097;BME280;49185;42.320;23.198;2024-01-27T11:19:02;95633.13;;;2.56;100.00
63097;BME280;49185;42.320;23.198;2024-01-27T11:21:28;95632.44;;;2.62;100.00
63097;BME280;49185;42.320;23.198;2024-01-27T11:23:53;95642.47;;;2.82;100.00
63097;BME280;49185;42.320;23.198;2024-01-27T11:26:20;95641.25;;;2.70;100.00
63097;BME280;49185;42.320;23.198;2024-01-27T11:28:48;95638.81;;;2.45;100.00
63097;BME280;49185;42.320;23.198;2024-01-27T11:31:17;95643.97;;;2.53;100.00
63097;BME280;49185;42.320;23.198;2024-01-27T11:33:43;95652.16;;;2.58;100.00
63097;BME280;49185;42.320;23.198;2024-01-27T11:36:18;95663.03;;;2.55;100.00
63097;BME280;49185;42.320;23.198;2024-01-27T11:38:44;95656.94;;;2.55;100.00
63097;BME280;49185;42.320;23.198;2024-01-27T11:41:09;95659.66;;;2.46;100.00
63097;BME280;49185;42.320;23.198;2024-01-27T11:43:34;95654.16;;;2.56;100.00
63097;BME280;49185;42.320;23.198;2024-01-27T11:46:01;95655.38;;;2.45;100.00
63097;BME280;49185;42.320;23.198;2024-01-27T11:48:27;95651.84;;;2.53;100.00
63097;BME280;49185;42.320;23.198;2024-01-27T11:51:07;95666.16;;;2.74;100.00
63097;BME280;49185;42.320;23.198;2024-01-27T11:53:32;95672.81;;;2.61;100.00
63097;BME280;49185;42.320;23.198;2024-01-27T11:55:58;95675.78;;;2.58;100.00
63097;BME280;49185;42.320;23.198;2024-01-27T11:58:23;95671.56;;;2.57;100.00
63097;BME280;49185;42.320;23.198;2024-01-27T12:00:48;95673.75;;;2.45;100.00
63097;BME280;49185;42.320;23.198;2024-01-27T12:03:14;95678.13;;;2.53;100.00
63097;BME280;49185;42.320;23.198;2024-01-27T12:05:39;95671.13;;;2.45;100.00
63097;BME280;49185;42.320;23.198;2024-01-27T12:08:08;95662.66;;;2.58;100.00
63097;BME280;49185;42.320;23.198;2024-01-27T12:10:33;95651.69;;;2.55;100.00
63097;BME280;49185;42.320;23.198;2024-01-27T12:12:59;95668.38;;;2.62;100.00
63097;BME280;49185;42.320;23.198;2024-01-27T12:15:25;95672.34;;;2.58;100.00
63097;BME280;49185;42.320;23.198;2024-01-27T12:17:51;95674.47;;;2.62;100.00
63097;BME280;49185;42.320;23.198;2024-01-27T12:20:16;95687.94;;;2.82;100.00
63097;BME280;49185;42.320;23.198;2024-01-27T12:22:42;95681.94;;;2.74;100.00
63097;BME280;49185;42.320;23.198;2024-01-27T12:25:12;95687.19;;;2.74;100.00
63097;BME280;49185;42.320;23.198;2024-01-27T12:27:39;95678.78;;;2.78;100.00
63097;BME280;49185;42.320;23.198;2024-01-27T12:30:05;95675.75;;;2.66;100.00
63097;BME280;49185;42.320;23.198;2024-01-27T12:32:31;95669.81;;;2.73;100.00
63097;BME280;49185;42.320;23.198;2024-01-27T12:34:57;95672.69;;;2.78;100.00